createdAt,value
2023-03-11T00:00:17.193Z,17.20
2023-03-11T00:02:45.993Z,46.40
2023-03-11T00:05:15.571Z,49.60
2023-03-11T00:07:43.814Z,47.60
2023-03-11T00:10:15.748Z,51.60
2023-03-11T00:12:44.200Z,50.80
2023-03-11T00:15:14.616Z,53.00
2023-03-11T00:17:42.865Z,56.20
2023-03-11T00:20:16.769Z,45.60
2023-03-11T00:22:44.827Z,47.60
2023-03-11T00:25:12.971Z,43.80
2023-03-11T00:27:41.130Z,50.80
2023-03-11T00:30:10.127Z,51.60
2023-03-11T00:32:40.042Z,55.60
2023-03-11T00:35:09.633Z,38.40
2023-03-11T00:37:37.772Z,45.40
2023-03-11T00:40:08.874Z,47.40
2023-03-11T00:42:37.197Z,52.80
2023-03-11T00:45:05.598Z,40.00
2023-03-11T00:47:33.830Z,54.00
2023-03-11T00:50:03.584Z,46.40
2023-03-11T00:52:31.917Z,52.80
2023-03-11T00:55:00.741Z,55.80
2023-03-11T00:57:29.363Z,66.00
2023-03-11T00:59:57.989Z,50.40
2023-03-11T01:02:26.156Z,54.00
2023-03-11T01:04:55.689Z,55.40
2023-03-11T01:07:25.407Z,54.40
2023-03-11T01:09:53.632Z,49.80
2023-03-11T01:12:21.770Z,52.60
2023-03-11T01:14:49.801Z,51.60
2023-03-11T01:17:18.072Z,50.20
2023-03-11T01:19:46.155Z,55.60
2023-03-11T01:22:14.276Z,60.20
2023-03-11T01:24:43.881Z,45.40
2023-03-11T01:27:11.953Z,34.40
2023-03-11T01:29:40.089Z,48.20
2023-03-11T01:32:08.675Z,60.80
2023-03-11T01:34:37.892Z,70.00
2023-03-11T01:37:06.027Z,68.20
2023-03-11T01:39:34.179Z,69.80
2023-03-11T01:42:03.859Z,74.20
2023-03-11T01:44:31.991Z,75.20
2023-03-11T01:47:18.850Z,78.40
2023-03-11T01:49:47.136Z,66.80
2023-03-11T01:52:15.443Z,75.00
2023-03-11T01:54:51.816Z,68.00
2023-03-11T01:57:22.844Z,75.60
2023-03-11T01:59:53.249Z,78.80
2023-03-11T02:02:23.200Z,83.20
2023-03-11T02:04:53.455Z,76.40
2023-03-11T02:07:25.520Z,72.60
2023-03-11T02:09:54.025Z,71.40
2023-03-11T02:12:24.651Z,69.00
2023-03-11T02:14:54.103Z,73.80
2023-03-11T02:17:22.337Z,72.20
2023-03-11T02:20:01.606Z,71.40
2023-03-11T02:22:36.259Z,72.40
2023-03-11T02:25:09.751Z,68.20
2023-03-11T02:27:41.852Z,83.80
2023-03-11T02:30:12.500Z,68.20
2023-03-11T02:32:42.551Z,71.00
2023-03-11T02:35:10.805Z,78.40
2023-03-11T02:37:44.759Z,48.40
2023-03-11T02:40:30.635Z,89.00
2023-03-11T02:43:01.729Z,74.60
2023-03-11T02:45:31.655Z,72.20
2023-03-11T02:48:00.929Z,66.20
2023-03-11T02:50:31.603Z,69.20
2023-03-11T02:52:59.729Z,62.80
2023-03-11T02:55:27.977Z,73.60
2023-03-11T02:57:56.126Z,59.20
2023-03-11T03:00:25.845Z,72.40
2023-03-11T03:02:59.224Z,70.00
2023-03-11T03:05:28.717Z,73.80
2023-03-11T03:07:58.933Z,69.00
2023-03-11T03:10:28.055Z,61.60
2023-03-11T03:12:56.299Z,65.40
2023-03-11T03:15:25.965Z,30.40
2023-03-11T03:17:54.546Z,52.80
2023-03-11T03:20:23.688Z,40.80
2023-03-11T03:22:55.796Z,45.20
2023-03-11T03:25:28.409Z,50.60
2023-03-11T03:27:59.192Z,31.40
2023-03-11T03:30:29.578Z,33.20
2023-03-11T03:32:57.967Z,40.80
2023-03-11T03:35:26.240Z,30.80
2023-03-11T03:38:08.108Z,30.40
2023-03-11T03:40:36.326Z,17.20
2023-03-11T03:43:06.835Z,26.40
2023-03-11T03:45:38.207Z,22.00
2023-03-11T03:48:06.566Z,16.40
2023-03-11T03:50:40.554Z,23.80
2023-03-11T03:53:10.210Z,22.00
2023-03-11T03:55:39.183Z,17.20
2023-03-11T03:58:07.362Z,21.60
2023-03-11T04:00:39.545Z,19.20
2023-03-11T04:03:08.200Z,21.60
2023-03-11T04:05:46.011Z,12.60
2023-03-11T04:08:15.347Z,18.00
2023-03-11T04:10:44.725Z,16.80
2023-03-11T04:13:12.922Z,17.80
2023-03-11T04:15:43.694Z,12.80
2023-03-11T04:18:11.821Z,18.60
2023-03-11T04:20:40.385Z,18.00
2023-03-11T04:23:08.663Z,16.40
2023-03-11T04:25:36.976Z,17.20
2023-03-11T04:28:05.564Z,15.80
2023-03-11T04:30:34.504Z,11.20
2023-03-11T04:33:04.700Z,6.60
2023-03-11T04:35:32.966Z,13.80
2023-03-11T04:38:01.779Z,19.40
2023-03-11T04:40:29.973Z,18.60
2023-03-11T04:42:58.901Z,13.00
2023-03-11T04:45:27.089Z,18.20
2023-03-11T04:47:59.578Z,15.40
2023-03-11T04:50:29.988Z,17.80
2023-03-11T04:52:58.317Z,18.00
2023-03-11T04:55:27.090Z,16.80
2023-03-11T04:57:55.572Z,15.60
2023-03-11T05:00:25.189Z,21.60
2023-03-11T05:03:03.204Z,21.00
2023-03-11T05:05:33.141Z,15.20
2023-03-11T05:08:01.290Z,18.40
2023-03-11T05:10:32.130Z,13.00
2023-03-11T05:13:03.516Z,12.60
2023-03-11T05:15:36.683Z,14.40
2023-03-11T05:18:05.394Z,18.20
2023-03-11T05:20:36.744Z,10.20
2023-03-11T05:23:05.289Z,16.60
2023-03-11T05:25:36.383Z,20.40
2023-03-11T05:28:05.912Z,14.20
2023-03-11T05:30:37.328Z,14.40
2023-03-11T05:33:05.541Z,19.00
2023-03-11T05:35:33.700Z,11.40
2023-03-11T05:38:03.680Z,11.60
2023-03-11T05:40:32.266Z,17.20
2023-03-11T05:43:00.524Z,15.80
2023-03-11T05:45:31.764Z,19.00
2023-03-11T05:48:02.246Z,19.60
2023-03-11T05:50:31.511Z,20.20
2023-03-11T05:52:59.827Z,20.20
2023-03-11T05:55:32.429Z,16.00
2023-03-11T05:58:01.309Z,19.60
2023-03-11T06:00:30.135Z,15.00
2023-03-11T06:03:01.028Z,19.80
2023-03-11T06:05:29.765Z,15.40
2023-03-11T06:07:58.686Z,12.20
2023-03-11T06:10:26.881Z,16.00
2023-03-11T06:12:56.851Z,10.00
2023-03-11T06:15:34.975Z,12.40
2023-03-11T06:18:03.304Z,12.20
2023-03-11T06:20:32.601Z,10.00
2023-03-11T06:23:00.732Z,11.60
2023-03-11T06:25:29.127Z,12.20
2023-03-11T06:27:59.118Z,12.00
2023-03-11T06:30:27.422Z,16.00
2023-03-11T06:33:14.540Z,14.60
2023-03-11T06:35:43.131Z,17.60
2023-03-11T06:38:11.345Z,15.00
2023-03-11T06:40:39.847Z,15.40
2023-03-11T06:43:09.564Z,11.25
2023-03-11T06:45:40.751Z,15.40
2023-03-11T06:48:10.206Z,12.20
2023-03-11T06:50:39.298Z,11.50
2023-03-11T06:53:08.347Z,9.80
2023-03-11T06:55:37.601Z,11.60
2023-03-11T06:58:06.234Z,12.80
2023-03-11T07:00:36.476Z,9.75
2023-03-11T07:03:05.101Z,9.60
2023-03-11T07:05:33.932Z,6.60
2023-03-11T07:08:07.153Z,9.80
2023-03-11T07:10:35.840Z,14.60
2023-03-11T07:13:04.359Z,8.20
2023-03-11T07:15:33.239Z,15.00
2023-03-11T07:18:02.922Z,8.20
2023-03-11T07:20:31.222Z,14.20
2023-03-11T07:22:59.408Z,15.80
2023-03-11T07:25:29.794Z,15.60
2023-03-11T07:27:57.950Z,10.80
2023-03-11T07:30:26.122Z,17.80
2023-03-11T07:32:54.260Z,18.80
2023-03-11T07:35:23.947Z,11.60
2023-03-11T07:37:52.087Z,20.40
2023-03-11T07:40:20.283Z,16.00
2023-03-11T07:42:48.527Z,7.20
2023-03-11T07:45:17.678Z,15.00
2023-03-11T07:47:46.061Z,18.00
2023-03-11T07:50:14.336Z,17.20
2023-03-11T07:52:43.910Z,15.80
2023-03-11T07:55:12.295Z,11.80
2023-03-11T07:57:40.850Z,18.80
2023-03-11T08:00:10.140Z,17.20
2023-03-11T08:02:41.197Z,22.00
2023-03-11T08:05:09.869Z,6.20
2023-03-11T08:07:38.039Z,20.60
2023-03-11T08:10:08.200Z,10.80
2023-03-11T08:12:36.456Z,15.80
2023-03-11T08:15:04.862Z,18.60
2023-03-11T08:17:33.022Z,18.80
2023-03-11T08:20:01.641Z,13.80
2023-03-11T08:22:30.914Z,17.80
2023-03-11T08:24:59.256Z,13.40
2023-03-11T08:27:30.572Z,19.20
2023-03-11T08:29:59.741Z,14.20
2023-03-11T08:32:31.345Z,15.60
2023-03-11T08:34:59.485Z,9.20
2023-03-11T08:37:27.857Z,24.40
2023-03-11T08:39:56.077Z,18.60
2023-03-11T08:42:24.419Z,22.40
2023-03-11T08:44:54.309Z,26.20
2023-03-11T08:47:22.597Z,17.20
2023-03-11T08:49:50.977Z,21.60
2023-03-11T08:52:19.172Z,14.20
2023-03-11T08:54:47.476Z,17.40
2023-03-11T08:57:15.676Z,12.80
2023-03-11T08:59:43.791Z,10.80
2023-03-11T09:02:13.429Z,5.60
2023-03-11T09:04:41.679Z,13.00
2023-03-11T09:07:10.642Z,8.20
2023-03-11T09:09:38.868Z,21.00
2023-03-11T09:12:08.057Z,12.00
2023-03-11T09:14:39.465Z,14.60
2023-03-11T09:17:08.192Z,11.00
2023-03-11T09:19:38.053Z,22.20
2023-03-11T09:22:06.655Z,14.60
2023-03-11T09:24:35.222Z,16.80
2023-03-11T09:27:03.858Z,14.80
2023-03-11T09:29:32.146Z,12.40
2023-03-11T09:32:00.603Z,13.80
2023-03-11T09:34:29.214Z,12.00
2023-03-11T09:36:59.792Z,15.00
2023-03-11T09:39:28.246Z,12.80
2023-03-11T09:41:59.207Z,18.60
2023-03-11T09:44:33.053Z,15.40
2023-03-11T09:47:22.836Z,15.20
2023-03-11T09:50:01.473Z,18.00
2023-03-11T09:52:34.216Z,19.20
2023-03-11T09:55:04.858Z,11.60
2023-03-11T09:57:34.636Z,15.40
2023-03-11T10:00:05.320Z,18.20
2023-03-11T10:02:41.792Z,13.40
2023-03-11T10:05:15.682Z,8.60
2023-03-11T10:07:48.523Z,13.40
2023-03-11T10:10:18.748Z,14.60
2023-03-11T10:12:52.310Z,12.00
2023-03-11T10:15:26.262Z,14.60
2023-03-11T10:18:01.261Z,15.00
2023-03-11T10:20:32.181Z,15.00
2023-03-11T10:23:05.991Z,18.00
2023-03-11T10:25:41.868Z,25.00
2023-03-11T10:28:13.588Z,21.00
2023-03-11T10:30:44.725Z,17.40
2023-03-11T10:33:21.551Z,13.80
2023-03-11T10:35:53.138Z,16.80
2023-03-11T10:38:24.454Z,12.80
2023-03-11T10:40:55.094Z,15.40
2023-03-11T10:43:25.880Z,16.40
2023-03-11T10:45:55.415Z,12.80
2023-03-11T10:48:24.024Z,14.20
2023-03-11T10:50:56.429Z,12.20
2023-03-11T10:53:26.110Z,12.40
2023-03-11T10:55:55.624Z,10.60
2023-03-11T10:58:25.341Z,6.60
2023-03-11T11:01:04.087Z,11.80
2023-03-11T11:03:32.628Z,14.40
2023-03-11T11:06:02.244Z,12.40
2023-03-11T11:08:32.533Z,13.80
2023-03-11T11:11:02.007Z,15.40
2023-03-11T11:13:32.544Z,12.00
2023-03-11T11:16:03.197Z,12.00
2023-03-11T11:18:33.745Z,19.40
2023-03-11T11:21:03.524Z,15.00
2023-03-11T11:23:35.922Z,13.40
2023-03-11T11:26:06.180Z,7.00
2023-03-11T11:28:34.913Z,15.60
2023-03-11T11:31:04.889Z,11.40
2023-03-11T11:33:34.171Z,10.80
2023-03-11T11:36:03.888Z,9.80
2023-03-11T11:38:32.929Z,12.60
2023-03-11T11:41:05.003Z,18.00
2023-03-11T11:43:37.502Z,18.60
2023-03-11T11:46:07.398Z,15.40
2023-03-11T11:48:42.522Z,20.60
2023-03-11T11:51:15.524Z,13.25
2023-03-11T11:53:46.556Z,16.80
2023-03-11T11:56:16.248Z,16.00
2023-03-11T11:58:44.572Z,12.00
2023-03-11T12:01:17.385Z,13.80
2023-03-11T12:04:00.691Z,10.75
2023-03-11T12:06:33.274Z,11.50
2023-03-11T12:09:08.778Z,12.75
2023-03-11T12:11:42.061Z,9.50
2023-03-11T12:14:13.966Z,9.25
2023-03-11T12:16:43.926Z,15.40
2023-03-11T12:19:18.302Z,12.50
2023-03-11T12:21:53.267Z,14.20
2023-03-11T12:24:33.496Z,12.00
2023-03-11T12:27:05.120Z,15.80
2023-03-11T12:29:36.188Z,13.25
2023-03-11T12:32:04.653Z,15.00
2023-03-11T12:34:35.833Z,12.80
2023-03-11T12:37:04.551Z,9.60
2023-03-11T12:39:34.072Z,12.50
2023-03-11T12:42:20.708Z,11.20
2023-03-11T12:44:49.470Z,13.00
2023-03-11T12:47:25.368Z,16.60
2023-03-11T12:49:55.119Z,13.80
2023-03-11T12:52:27.851Z,19.60
2023-03-11T12:55:14.660Z,16.60
2023-03-11T12:57:50.624Z,15.40
2023-03-11T13:00:24.119Z,10.80
2023-03-11T13:03:04.368Z,9.40
2023-03-11T13:05:40.712Z,15.40
2023-03-11T13:08:11.234Z,12.20
2023-03-11T13:10:40.878Z,9.60
2023-03-11T13:13:27.528Z,12.60
2023-03-11T13:15:57.909Z,12.80
2023-03-11T13:18:26.777Z,8.60
2023-03-11T13:20:59.405Z,12.60
2023-03-11T13:23:33.605Z,12.00
2023-03-11T13:26:17.711Z,11.80
2023-03-11T13:28:52.838Z,15.60
2023-03-11T13:31:30.885Z,12.00
2023-03-11T13:34:02.331Z,9.00
2023-03-11T13:36:37.925Z,9.80
2023-03-11T13:39:30.022Z,9.80
2023-03-11T13:41:58.184Z,10.80
2023-03-11T13:44:29.083Z,10.80
2023-03-11T13:47:01.930Z,9.00
2023-03-11T13:49:34.186Z,12.80
2023-03-11T13:52:03.501Z,10.00
2023-03-11T13:54:36.280Z,13.60
2023-03-11T13:57:04.597Z,13.20
2023-03-11T13:59:33.837Z,9.00
2023-03-11T14:02:06.076Z,13.60
2023-03-11T14:04:35.563Z,9.60
2023-03-11T14:07:13.778Z,8.40
2023-03-11T14:09:42.467Z,14.80
2023-03-11T14:12:11.296Z,15.00
2023-03-11T14:14:45.415Z,11.20
2023-03-11T14:17:16.732Z,9.60
2023-03-11T14:19:44.940Z,15.00
2023-03-11T14:22:16.694Z,12.80
2023-03-11T14:24:49.353Z,14.40
2023-03-11T14:27:18.397Z,13.80
2023-03-11T14:29:48.446Z,14.40
2023-03-11T14:32:25.151Z,14.40
2023-03-11T14:34:53.420Z,13.40
2023-03-11T14:37:31.981Z,11.60
2023-03-11T14:40:00.251Z,11.20
2023-03-11T14:42:29.871Z,14.40
2023-03-11T14:45:02.993Z,13.80
2023-03-11T14:47:36.947Z,15.00
2023-03-11T14:50:06.452Z,14.60
2023-03-11T14:52:37.398Z,12.20
2023-03-11T14:55:07.560Z,16.20
2023-03-11T14:57:38.986Z,19.80
2023-03-11T15:00:12.329Z,17.20
2023-03-11T15:02:46.132Z,10.20
2023-03-11T15:05:18.993Z,15.60
2023-03-11T15:07:47.812Z,12.00
2023-03-11T15:10:16.373Z,15.80
2023-03-11T15:12:45.389Z,11.40
2023-03-11T15:15:23.251Z,30.80
2023-03-11T15:17:57.742Z,18.80
2023-03-11T15:20:27.687Z,15.00
2023-03-11T15:23:00.803Z,15.60
2023-03-11T15:25:30.422Z,16.00
2023-03-11T15:27:58.939Z,12.25
2023-03-11T15:30:28.119Z,13.00
2023-03-11T15:32:59.430Z,14.20
2023-03-11T15:35:28.409Z,13.20
2023-03-11T15:38:11.468Z,10.80
2023-03-11T15:40:45.605Z,8.20
2023-03-11T15:43:23.949Z,13.00
2023-03-11T15:45:53.692Z,10.80
2023-03-11T15:48:23.797Z,10.40
2023-03-11T15:50:54.468Z,11.60
2023-03-11T15:53:23.377Z,12.00
2023-03-11T15:55:51.733Z,10.60
2023-03-11T15:58:20.781Z,14.00
2023-03-11T16:00:49.866Z,12.40
2023-03-11T16:03:18.347Z,15.20
2023-03-11T16:05:48.336Z,16.00
2023-03-11T16:08:16.501Z,10.40
2023-03-11T16:10:44.829Z,12.40
2023-03-11T16:13:14.080Z,13.20
2023-03-11T16:15:42.814Z,12.40
2023-03-11T16:18:11.814Z,10.60
2023-03-11T16:20:41.417Z,9.80
2023-03-11T16:23:14.220Z,13.80
2023-03-11T16:25:42.457Z,13.80
2023-03-11T16:28:13.178Z,8.60
2023-03-11T16:30:41.399Z,18.60
2023-03-11T16:33:09.787Z,14.80
2023-03-11T16:35:38.275Z,10.40
2023-03-11T16:38:08.198Z,10.60
2023-03-11T16:40:38.417Z,11.00
2023-03-11T16:43:07.563Z,13.80
2023-03-11T16:45:35.818Z,15.00
2023-03-11T16:48:05.644Z,14.80
2023-03-11T16:50:37.233Z,13.80
2023-03-11T16:53:05.616Z,14.25
2023-03-11T16:55:33.840Z,3.75
2023-03-11T16:58:03.567Z,14.00
2023-03-11T17:00:31.917Z,19.60
2023-03-11T17:03:00.138Z,14.20
2023-03-11T17:05:28.448Z,8.80
2023-03-11T17:08:01.178Z,8.50
2023-03-11T17:10:29.916Z,15.00
2023-03-11T17:12:58.272Z,17.80
2023-03-11T17:15:27.990Z,18.80
2023-03-11T17:17:56.188Z,15.80
2023-03-11T17:20:24.764Z,24.60
2023-03-11T17:22:52.959Z,11.50
2023-03-11T17:25:24.326Z,22.25
2023-03-11T17:27:52.612Z,16.80
2023-03-11T17:30:34.271Z,11.20
2023-03-11T17:33:05.958Z,15.40
2023-03-11T17:35:34.161Z,20.20
2023-03-11T17:38:04.131Z,13.40
2023-03-11T17:40:32.962Z,21.40
2023-03-11T17:43:01.395Z,12.75
2023-03-11T17:45:29.734Z,16.00
2023-03-11T17:47:58.039Z,21.60
2023-03-11T17:50:27.768Z,19.00
2023-03-11T17:52:56.683Z,19.00
2023-03-11T17:55:24.966Z,21.25
2023-03-11T17:57:53.669Z,14.00
2023-03-11T18:00:22.648Z,20.00
2023-03-11T18:02:51.495Z,19.40
2023-03-11T18:05:20.077Z,19.40
2023-03-11T18:07:49.764Z,17.60
2023-03-11T18:10:18.079Z,15.40
2023-03-11T18:12:47.030Z,12.60
2023-03-11T18:15:19.283Z,16.00
2023-03-11T18:17:48.034Z,18.80
2023-03-11T18:20:16.592Z,18.00
2023-03-11T18:22:46.659Z,19.40
2023-03-11T18:25:16.750Z,16.80
2023-03-11T18:27:44.966Z,20.00
2023-03-11T18:30:14.600Z,15.00
2023-03-11T18:32:42.954Z,21.60
2023-03-11T18:35:11.310Z,20.40
2023-03-11T18:37:39.541Z,15.80
2023-03-11T18:40:08.281Z,16.80
2023-03-11T18:42:37.880Z,15.60
2023-03-11T18:45:06.614Z,17.60
2023-03-11T18:47:35.502Z,17.60
2023-03-11T18:50:03.787Z,17.40
2023-03-11T18:52:32.140Z,13.80
2023-03-11T18:55:00.547Z,15.20
2023-03-11T18:57:28.817Z,12.40
2023-03-11T18:59:58.384Z,19.20
2023-03-11T19:02:27.188Z,14.80
2023-03-11T19:04:55.527Z,19.00
2023-03-11T19:07:23.808Z,16.60
2023-03-11T19:09:51.945Z,16.40
2023-03-11T19:12:20.165Z,13.00
2023-03-11T19:14:48.415Z,15.20
2023-03-11T19:17:18.456Z,13.40
2023-03-11T19:19:46.775Z,14.75
2023-03-11T19:22:15.232Z,19.60
2023-03-11T19:24:43.443Z,13.00
2023-03-11T19:27:11.544Z,15.40
2023-03-11T19:29:39.705Z,20.80
2023-03-11T19:32:07.964Z,13.20
2023-03-11T19:34:38.571Z,19.00
2023-03-11T19:37:06.837Z,18.80
2023-03-11T19:39:35.361Z,22.80
2023-03-11T19:42:06.054Z,19.60
2023-03-11T19:44:34.260Z,12.80
2023-03-11T19:47:02.490Z,16.00
2023-03-11T19:49:30.597Z,18.00
2023-03-11T19:52:00.158Z,24.80
2023-03-11T19:54:28.270Z,23.80
2023-03-11T19:56:56.353Z,15.40
2023-03-11T19:59:24.491Z,19.20
2023-03-11T20:01:52.640Z,22.20
2023-03-11T20:04:20.924Z,13.80
2023-03-11T20:06:49.098Z,22.40
2023-03-11T20:09:18.792Z,19.00
2023-03-11T20:11:47.576Z,16.00
2023-03-11T20:14:16.065Z,19.60
2023-03-11T20:16:44.889Z,18.80
2023-03-11T20:19:13.108Z,18.40
2023-03-11T20:21:42.059Z,15.40
2023-03-11T20:24:11.421Z,17.50
2023-03-11T20:26:41.198Z,14.40
2023-03-11T20:29:09.469Z,19.50
2023-03-11T20:31:38.158Z,14.50
2023-03-11T20:34:06.659Z,19.75
2023-03-11T20:36:35.265Z,13.75
2023-03-11T20:39:04.367Z,15.80
2023-03-11T20:41:35.209Z,21.80
2023-03-11T20:44:05.675Z,21.00
2023-03-11T20:46:34.328Z,17.00
2023-03-11T20:49:02.724Z,16.50
2023-03-11T20:51:30.992Z,18.75
2023-03-11T20:53:59.046Z,21.00
2023-03-11T20:56:27.541Z,19.00
2023-03-11T20:58:59.375Z,14.25
2023-03-11T21:01:30.135Z,13.00
2023-03-11T21:03:59.134Z,12.75
2023-03-11T21:06:28.719Z,14.25
2023-03-11T21:08:57.680Z,10.00
2023-03-11T21:11:26.297Z,14.00
2023-03-11T21:13:55.371Z,14.75
2023-03-11T21:16:23.770Z,15.50
2023-03-11T21:18:53.591Z,18.25
2023-03-11T21:21:22.240Z,15.50
2023-03-11T21:23:50.627Z,12.50
2023-03-11T21:26:19.259Z,13.50
2023-03-11T21:28:47.912Z,18.80
2023-03-11T21:31:17.748Z,14.75
2023-03-11T21:33:46.317Z,8.75
2023-03-11T21:36:16.598Z,15.00
2023-03-11T21:38:45.084Z,12.50
2023-03-11T21:41:14.686Z,13.50
2023-03-11T21:43:43.473Z,14.50
2023-03-11T21:46:12.592Z,12.67
2023-03-11T21:48:40.945Z,16.25
2023-03-11T21:51:09.039Z,12.50
2023-03-11T21:53:38.537Z,11.00
2023-03-11T21:56:07.181Z,10.75
2023-03-11T21:58:35.570Z,6.25
2023-03-11T22:01:04.288Z,10.75
2023-03-11T22:03:35.650Z,8.00
2023-03-11T22:06:06.373Z,7.50
2023-03-11T22:08:34.574Z,10.50
2023-03-11T22:11:04.586Z,10.50
2023-03-11T22:13:32.818Z,8.25
2023-03-11T22:16:03.237Z,8.25
2023-03-11T22:18:31.676Z,14.75
2023-03-11T22:20:59.877Z,8.50
2023-03-11T22:23:28.427Z,7.00
2023-03-11T22:25:56.566Z,11.00
2023-03-11T22:28:26.161Z,7.00
2023-03-11T22:30:54.764Z,10.00
2023-03-11T22:33:22.882Z,10.25
2023-03-11T22:35:51.838Z,3.50
2023-03-11T22:38:20.021Z,7.50
2023-03-11T22:40:48.119Z,10.25
2023-03-11T22:43:16.242Z,8.75
2023-03-11T22:45:46.925Z,8.00
2023-03-11T22:48:15.397Z,6.50
2023-03-11T22:50:44.499Z,5.00
2023-03-11T22:53:12.830Z,6.50
2023-03-11T22:55:41.273Z,7.00
2023-03-11T22:58:09.433Z,7.00
2023-03-11T23:00:38.019Z,8.25
2023-03-11T23:03:08.163Z,7.50
2023-03-11T23:05:42.049Z,6.00
2023-03-11T23:08:10.755Z,6.00
2023-03-11T23:10:40.750Z,7.00
2023-03-11T23:13:09.328Z,7.50
2023-03-11T23:15:37.661Z,9.50
2023-03-11T23:18:07.356Z,8.75
2023-03-11T23:20:36.711Z,9.50
2023-03-11T23:23:05.220Z,14.00
2023-03-11T23:25:33.848Z,12.50
2023-03-11T23:28:03.096Z,12.25
2023-03-11T23:30:31.248Z,14.00
2023-03-11T23:32:59.587Z,13.00
2023-03-11T23:35:29.240Z,12.75
2023-03-11T23:37:57.296Z,15.75
2023-03-11T23:40:25.662Z,11.50
2023-03-11T23:42:53.824Z,20.25
2023-03-11T23:45:21.975Z,18.75
2023-03-11T23:47:50.100Z,9.25
2023-03-11T23:50:18.408Z,15.25
2023-03-11T23:52:47.890Z,14.75
2023-03-11T23:55:16.152Z,17.25
2023-03-11T23:57:44.487Z,21.20
